This is the latest recevied weather packets stored in our database for station/object IU1OPQ-3. If no packets are shown the sender has not sent any weather packets the latest 10 day(s).
| Time | Temp. | Humidity | Pressure | Rain* | Wind** | Luminosity | Snow |
|---|---|---|---|---|---|---|---|
| 1777073401 | 12.22° C | 77% | 1015.6 hPa | 0 mm | - | - | - |
| 1777072501 | 12.22° C | 77% | 1015.6 hPa | 0 mm | - | - | - |
| 1777071601 | 11.67° C | 79% | 1015.7 hPa | 0 mm | - | - | - |
| 1777070701 | 11.67° C | 79% | 1015.4 hPa | 0 mm | - | - | - |
| 1777069801 | 11.67° C | 79% | 1015.7 hPa | 0 mm | - | - | - |
| 1777068901 | 12.22° C | 77% | 1015.6 hPa | 0 mm | - | - | - |
| 1777068001 | 12.78° C | 74% | 1015.7 hPa | 0 mm | - | - | - |
| 1777067101 | 12.78° C | 76% | 1015.7 hPa | 0 mm | - | - | - |
| 1777066201 | 12.78° C | 77% | 1015.7 hPa | 0 mm | - | - | - |
| 1777065301 | 12.78° C | 76% | 1015.5 hPa | 0 mm | - | - | - |
| 1777064401 | 12.78° C | 77% | 1015.5 hPa | 0 mm | - | - | - |
| 1777063501 | 12.22° C | 79% | 1015.4 hPa | 0 mm | - | - | - |
| 1777062601 | 12.78° C | 79% | 1015.5 hPa | 0 mm | - | - | - |
| 1777061701 | 12.78° C | 80% | 1015.5 hPa | 0 mm | - | - | - |
| 1777060801 | 12.78° C | 80% | 1015.3 hPa | 0 mm | - | - | - |
| 1777059900 | 12.78° C | 80% | 1015.5 hPa | 0 mm | - | - | - |
| 1777059001 | 12.78° C | 81% | 1015.4 hPa | 0 mm | - | - | - |
| 1777058101 | 13.33° C | 79% | 1015 hPa | 0 mm | - | - | - |
| 1777057201 | 13.33° C | 80% | 1015.2 hPa | 0 mm | - | - | - |
| 1777056301 | 13.89° C | 79% | 1014.9 hPa | 0 mm | - | - | - |
| 1777055401 | 13.89° C | 78% | 1014.8 hPa | 0 mm | - | - | - |
| 1777054501 | 14.44° C | 77% | 1014.7 hPa | 0 mm | - | - | - |
| 1777053601 | 15° C | 75% | 1014.7 hPa | 0 mm | - | - | - |
| 1777052701 | 16.11° C | 72% | 1014.5 hPa | 0 mm | - | - | - |
| 1777051801 | 16.67° C | 70% | 1014.6 hPa | 0 mm | - | - | - |
* Rain latest hour (hover to see other rain measurements)
** Current wind speed in m/s (hover to see current wind gust speed)